sensor_id;sensor_type;location;lat;lon;timestamp;temperature;humidity
22771;DHT22;11552;50.786;4.332;2022-08-21T00:01:11;17.10;99.90
22771;DHT22;11552;50.786;4.332;2022-08-21T00:03:38;17.10;99.90
22771;DHT22;11552;50.786;4.332;2022-08-21T00:06:04;17.20;99.90
22771;DHT22;11552;50.786;4.332;2022-08-21T00:08:29;17.20;99.90
22771;DHT22;11552;50.786;4.332;2022-08-21T00:10:55;17.20;99.90
22771;DHT22;11552;50.786;4.332;2022-08-21T00:13:21;17.00;99.90
22771;DHT22;11552;50.786;4.332;2022-08-21T00:15:48;16.90;99.90
22771;DHT22;11552;50.786;4.332;2022-08-21T00:18:14;16.80;99.90
22771;DHT22;11552;50.786;4.332;2022-08-21T00:20:40;16.80;99.90
22771;DHT22;11552;50.786;4.332;2022-08-21T00:23:06;16.80;99.90
22771;DHT22;11552;50.786;4.332;2022-08-21T00:25:33;16.70;99.90
22771;DHT22;11552;50.786;4.332;2022-08-21T00:27:58;16.60;99.90
22771;DHT22;11552;50.786;4.332;2022-08-21T00:30:25;16.60;99.90
22771;DHT22;11552;50.786;4.332;2022-08-21T00:32:52;16.70;99.90
22771;DHT22;11552;50.786;4.332;2022-08-21T00:35:20;16.60;99.90
22771;DHT22;11552;50.786;4.332;2022-08-21T00:37:46;16.60;99.90
22771;DHT22;11552;50.786;4.332;2022-08-21T00:40:14;16.60;99.90
22771;DHT22;11552;50.786;4.332;2022-08-21T00:42:40;16.50;99.90
22771;DHT22;11552;50.786;4.332;2022-08-21T00:45:06;16.40;99.90
22771;DHT22;11552;50.786;4.332;2022-08-21T00:47:32;16.50;99.90
22771;DHT22;11552;50.786;4.332;2022-08-21T00:49:57;16.50;99.90
22771;DHT22;11552;50.786;4.332;2022-08-21T00:52:24;16.50;99.90
22771;DHT22;11552;50.786;4.332;2022-08-21T00:54:52;16.60;99.90
22771;DHT22;11552;50.786;4.332;2022-08-21T00:57:25;16.70;99.90
22771;DHT22;11552;50.786;4.332;2022-08-21T00:59:52;16.70;99.90
22771;DHT22;11552;50.786;4.332;2022-08-21T01:02:19;16.70;99.90
22771;DHT22;11552;50.786;4.332;2022-08-21T01:04:45;16.60;99.90
22771;DHT22;11552;50.786;4.332;2022-08-21T01:07:11;16.60;99.90
22771;DHT22;11552;50.786;4.332;2022-08-21T01:09:37;16.70;99.90
22771;DHT22;11552;50.786;4.332;2022-08-21T01:12:04;16.50;99.90
22771;DHT22;11552;50.786;4.332;2022-08-21T01:14:29;16.60;99.90
22771;DHT22;11552;50.786;4.332;2022-08-21T01:16:55;16.70;99.90
22771;DHT22;11552;50.786;4.332;2022-08-21T01:19:21;16.50;99.90
22771;DHT22;11552;50.786;4.332;2022-08-21T01:21:47;16.50;99.90
22771;DHT22;11552;50.786;4.332;2022-08-21T01:24:13;16.50;99.90
22771;DHT22;11552;50.786;4.332;2022-08-21T01:26:39;16.30;99.90
22771;DHT22;11552;50.786;4.332;2022-08-21T01:31:31;16.10;99.90
22771;DHT22;11552;50.786;4.332;2022-08-21T01:33:58;16.00;99.90
22771;DHT22;11552;50.786;4.332;2022-08-21T01:36:24;16.00;99.90
22771;DHT22;11552;50.786;4.332;2022-08-21T01:38:49;16.10;99.90
22771;DHT22;11552;50.786;4.332;2022-08-21T01:41:15;16.20;99.90
22771;DHT22;11552;50.786;4.332;2022-08-21T01:43:41;16.20;99.90
22771;DHT22;11552;50.786;4.332;2022-08-21T01:46:07;16.20;99.90
22771;DHT22;11552;50.786;4.332;2022-08-21T01:48:33;16.00;99.90
22771;DHT22;11552;50.786;4.332;2022-08-21T01:50:58;15.70;99.90
22771;DHT22;11552;50.786;4.332;2022-08-21T01:53:24;15.70;99.90
22771;DHT22;11552;50.786;4.332;2022-08-21T01:55:50;15.80;99.90
22771;DHT22;11552;50.786;4.332;2022-08-21T01:58:15;16.00;99.90
22771;DHT22;11552;50.786;4.332;2022-08-21T02:00:41;16.00;99.90
22771;DHT22;11552;50.786;4.332;2022-08-21T02:03:06;16.10;99.90
22771;DHT22;11552;50.786;4.332;2022-08-21T02:05:32;16.10;99.90
22771;DHT22;11552;50.786;4.332;2022-08-21T02:07:58;16.10;99.90
22771;DHT22;11552;50.786;4.332;2022-08-21T02:10:28;16.10;99.90
22771;DHT22;11552;50.786;4.332;2022-08-21T02:12:54;15.70;99.90
22771;DHT22;11552;50.786;4.332;2022-08-21T02:15:20;15.50;99.90
22771;DHT22;11552;50.786;4.332;2022-08-21T02:17:48;15.70;99.90
22771;DHT22;11552;50.786;4.332;2022-08-21T02:20:16;15.70;99.90
22771;DHT22;11552;50.786;4.332;2022-08-21T02:22:43;15.70;99.90
22771;DHT22;11552;50.786;4.332;2022-08-21T02:25:09;15.70;99.90
22771;DHT22;11552;50.786;4.332;2022-08-21T02:27:39;15.70;99.90
22771;DHT22;11552;50.786;4.332;2022-08-21T02:30:05;15.70;99.90
22771;DHT22;11552;50.786;4.332;2022-08-21T02:32:31;15.70;99.90
22771;DHT22;11552;50.786;4.332;2022-08-21T02:34:56;15.60;99.90
22771;DHT22;11552;50.786;4.332;2022-08-21T02:37:22;15.60;99.90
22771;DHT22;11552;50.786;4.332;2022-08-21T02:39:48;15.50;99.90
22771;DHT22;11552;50.786;4.332;2022-08-21T02:42:13;15.40;99.90
22771;DHT22;11552;50.786;4.332;2022-08-21T02:44:39;15.50;99.90
22771;DHT22;11552;50.786;4.332;2022-08-21T02:47:04;15.60;99.90
22771;DHT22;11552;50.786;4.332;2022-08-21T02:49:30;15.70;99.90
22771;DHT22;11552;50.786;4.332;2022-08-21T02:51:55;15.60;99.90
22771;DHT22;11552;50.786;4.332;2022-08-21T02:54:21;15.50;99.90
22771;DHT22;11552;50.786;4.332;2022-08-21T02:56:46;15.40;99.90
22771;DHT22;11552;50.786;4.332;2022-08-21T02:59:12;15.40;99.90
22771;DHT22;11552;50.786;4.332;2022-08-21T03:01:37;15.40;99.90
22771;DHT22;11552;50.786;4.332;2022-08-21T03:04:04;15.40;99.90
22771;DHT22;11552;50.786;4.332;2022-08-21T03:06:29;15.40;99.90
22771;DHT22;11552;50.786;4.332;2022-08-21T03:08:55;15.50;99.90
22771;DHT22;11552;50.786;4.332;2022-08-21T03:11:21;15.50;99.90
22771;DHT22;11552;50.786;4.332;2022-08-21T03:13:47;15.50;99.90
22771;DHT22;11552;50.786;4.332;2022-08-21T03:16:12;15.10;99.90
22771;DHT22;11552;50.786;4.332;2022-08-21T03:18:38;15.00;99.90
22771;DHT22;11552;50.786;4.332;2022-08-21T03:21:03;14.90;99.90
22771;DHT22;11552;50.786;4.332;2022-08-21T03:23:29;15.00;99.90
22771;DHT22;11552;50.786;4.332;2022-08-21T03:25:55;15.10;99.90
22771;DHT22;11552;50.786;4.332;2022-08-21T03:28:21;15.10;99.90
22771;DHT22;11552;50.786;4.332;2022-08-21T03:30:48;15.20;99.90
22771;DHT22;11552;50.786;4.332;2022-08-21T03:33:13;15.10;99.90
22771;DHT22;11552;50.786;4.332;2022-08-21T03:35:39;15.00;99.90
22771;DHT22;11552;50.786;4.332;2022-08-21T03:38:05;15.20;99.90
22771;DHT22;11552;50.786;4.332;2022-08-21T03:40:31;15.20;99.90
22771;DHT22;11552;50.786;4.332;2022-08-21T03:42:56;15.00;99.90
22771;DHT22;11552;50.786;4.332;2022-08-21T03:45:22;14.80;99.90
22771;DHT22;11552;50.786;4.332;2022-08-21T03:47:56;14.50;99.90
22771;DHT22;11552;50.786;4.332;2022-08-21T03:50:22;14.50;99.90
22771;DHT22;11552;50.786;4.332;2022-08-21T03:52:48;14.50;99.90
22771;DHT22;11552;50.786;4.332;2022-08-21T03:55:14;14.70;99.90
22771;DHT22;11552;50.786;4.332;2022-08-21T03:57:39;14.80;99.90
22771;DHT22;11552;50.786;4.332;2022-08-21T04:00:05;14.80;99.90
22771;DHT22;11552;50.786;4.332;2022-08-21T04:02:33;14.80;99.90
22771;DHT22;11552;50.786;4.332;2022-08-21T04:04:59;14.90;99.90
22771;DHT22;11552;50.786;4.332;2022-08-21T04:07:24;15.00;99.90
22771;DHT22;11552;50.786;4.332;2022-08-21T04:09:50;15.00;99.90
22771;DHT22;11552;50.786;4.332;2022-08-21T04:12:15;14.80;99.90
22771;DHT22;11552;50.786;4.332;2022-08-21T04:14:41;14.90;99.90
22771;DHT22;11552;50.786;4.332;2022-08-21T04:17:07;14.90;99.90
22771;DHT22;11552;50.786;4.332;2022-08-21T04:19:32;14.90;99.90
22771;DHT22;11552;50.786;4.332;2022-08-21T04:21:58;14.90;99.90
22771;DHT22;11552;50.786;4.332;2022-08-21T04:24:23;14.90;99.90
22771;DHT22;11552;50.786;4.332;2022-08-21T04:26:49;14.70;99.90
22771;DHT22;11552;50.786;4.332;2022-08-21T04:29:15;14.60;99.90
22771;DHT22;11552;50.786;4.332;2022-08-21T04:31:40;14.50;99.90
22771;DHT22;11552;50.786;4.332;2022-08-21T04:34:06;14.60;99.90
22771;DHT22;11552;50.786;4.332;2022-08-21T04:36:33;14.70;99.90
22771;DHT22;11552;50.786;4.332;2022-08-21T04:38:59;14.20;99.90
22771;DHT22;11552;50.786;4.332;2022-08-21T04:41:24;14.10;99.90
22771;DHT22;11552;50.786;4.332;2022-08-21T04:43:50;14.30;99.90
22771;DHT22;11552;50.786;4.332;2022-08-21T04:46:15;14.30;99.90
22771;DHT22;11552;50.786;4.332;2022-08-21T04:48:41;14.50;99.90
22771;DHT22;11552;50.786;4.332;2022-08-21T04:51:14;14.50;99.90
22771;DHT22;11552;50.786;4.332;2022-08-21T04:56:14;14.60;99.90
22771;DHT22;11552;50.786;4.332;2022-08-21T04:58:41;14.70;99.90
22771;DHT22;11552;50.786;4.332;2022-08-21T05:01:09;14.60;99.90
22771;DHT22;11552;50.786;4.332;2022-08-21T05:03:35;14.60;99.90
22771;DHT22;11552;50.786;4.332;2022-08-21T05:06:03;14.70;99.90
22771;DHT22;11552;50.786;4.332;2022-08-21T05:08:28;14.90;99.90
22771;DHT22;11552;50.786;4.332;2022-08-21T05:10:54;14.90;99.90
22771;DHT22;11552;50.786;4.332;2022-08-21T05:13:20;14.80;99.90
22771;DHT22;11552;50.786;4.332;2022-08-21T05:15:45;14.90;99.90
22771;DHT22;11552;50.786;4.332;2022-08-21T05:18:11;14.90;99.90
22771;DHT22;11552;50.786;4.332;2022-08-21T05:20:36;14.80;99.90
22771;DHT22;11552;50.786;4.332;2022-08-21T05:23:09;14.90;99.90
22771;DHT22;11552;50.786;4.332;2022-08-21T05:25:35;14.80;99.90
22771;DHT22;11552;50.786;4.332;2022-08-21T05:28:01;14.70;99.90
22771;DHT22;11552;50.786;4.332;2022-08-21T05:30:26;14.90;99.90
22771;DHT22;11552;50.786;4.332;2022-08-21T05:32:56;15.10;99.90
22771;DHT22;11552;50.786;4.332;2022-08-21T05:35:22;15.10;99.90
22771;DHT22;11552;50.786;4.332;2022-08-21T05:37:47;15.20;99.90
22771;DHT22;11552;50.786;4.332;2022-08-21T05:40:13;15.20;99.90
22771;DHT22;11552;50.786;4.332;2022-08-21T05:42:39;15.30;99.90
22771;DHT22;11552;50.786;4.332;2022-08-21T05:45:05;15.30;99.90
22771;DHT22;11552;50.786;4.332;2022-08-21T05:47:30;15.20;99.90
22771;DHT22;11552;50.786;4.332;2022-08-21T05:49:56;15.20;99.90
22771;DHT22;11552;50.786;4.332;2022-08-21T05:52:22;15.20;99.90
22771;DHT22;11552;50.786;4.332;2022-08-21T05:54:47;15.10;99.90
22771;DHT22;11552;50.786;4.332;2022-08-21T05:57:13;15.20;99.90
22771;DHT22;11552;50.786;4.332;2022-08-21T05:59:38;15.40;99.90
22771;DHT22;11552;50.786;4.332;2022-08-21T06:02:05;15.50;99.90
22771;DHT22;11552;50.786;4.332;2022-08-21T06:04:35;15.60;99.90
22771;DHT22;11552;50.786;4.332;2022-08-21T06:07:00;15.70;99.90
22771;DHT22;11552;50.786;4.332;2022-08-21T06:09:26;15.90;99.90
22771;DHT22;11552;50.786;4.332;2022-08-21T06:11:51;16.00;99.90
22771;DHT22;11552;50.786;4.332;2022-08-21T06:14:17;16.10;99.90
22771;DHT22;11552;50.786;4.332;2022-08-21T06:16:42;16.30;99.90
22771;DHT22;11552;50.786;4.332;2022-08-21T06:19:08;16.40;99.90
22771;DHT22;11552;50.786;4.332;2022-08-21T06:21:33;16.40;99.90
22771;DHT22;11552;50.786;4.332;2022-08-21T06:23:59;16.60;99.90
22771;DHT22;11552;50.786;4.332;2022-08-21T06:26:24;16.70;99.90
22771;DHT22;11552;50.786;4.332;2022-08-21T06:28:50;16.80;99.90
22771;DHT22;11552;50.786;4.332;2022-08-21T06:31:18;16.90;99.90
22771;DHT22;11552;50.786;4.332;2022-08-21T06:33:44;17.00;99.90
22771;DHT22;11552;50.786;4.332;2022-08-21T06:36:10;16.90;99.90
22771;DHT22;11552;50.786;4.332;2022-08-21T06:38:36;17.00;99.90
22771;DHT22;11552;50.786;4.332;2022-08-21T06:41:02;17.00;99.90
22771;DHT22;11552;50.786;4.332;2022-08-21T06:43:27;17.10;99.90
22771;DHT22;11552;50.786;4.332;2022-08-21T06:45:53;17.10;99.90
22771;DHT22;11552;50.786;4.332;2022-08-21T06:48:18;17.20;99.90
22771;DHT22;11552;50.786;4.332;2022-08-21T06:50:44;17.20;99.90
22771;DHT22;11552;50.786;4.332;2022-08-21T06:53:10;17.20;99.90
22771;DHT22;11552;50.786;4.332;2022-08-21T06:55:36;17.40;99.90
22771;DHT22;11552;50.786;4.332;2022-08-21T06:58:02;17.50;99.90
22771;DHT22;11552;50.786;4.332;2022-08-21T07:00:28;17.60;99.90
22771;DHT22;11552;50.786;4.332;2022-08-21T07:02:54;17.60;99.90
22771;DHT22;11552;50.786;4.332;2022-08-21T07:05:19;17.60;99.90
22771;DHT22;11552;50.786;4.332;2022-08-21T07:07:45;17.70;99.90
22771;DHT22;11552;50.786;4.332;2022-08-21T07:10:11;17.70;99.90
22771;DHT22;11552;50.786;4.332;2022-08-21T07:12:36;17.90;99.90
22771;DHT22;11552;50.786;4.332;2022-08-21T07:15:02;18.00;99.90
22771;DHT22;11552;50.786;4.332;2022-08-21T07:17:28;18.30;99.90
22771;DHT22;11552;50.786;4.332;2022-08-21T07:19:53;18.40;99.90
22771;DHT22;11552;50.786;4.332;2022-08-21T07:22:19;18.50;99.90
22771;DHT22;11552;50.786;4.332;2022-08-21T07:24:45;18.60;99.90
22771;DHT22;11552;50.786;4.332;2022-08-21T07:27:11;18.70;99.90
22771;DHT22;11552;50.786;4.332;2022-08-21T07:29:37;18.80;99.90
22771;DHT22;11552;50.786;4.332;2022-08-21T07:32:02;18.90;99.90
22771;DHT22;11552;50.786;4.332;2022-08-21T07:34:28;18.90;99.90
22771;DHT22;11552;50.786;4.332;2022-08-21T07:36:54;19.00;99.90
22771;DHT22;11552;50.786;4.332;2022-08-21T07:39:19;19.00;99.90
22771;DHT22;11552;50.786;4.332;2022-08-21T07:41:45;19.20;99.90
22771;DHT22;11552;50.786;4.332;2022-08-21T07:44:10;19.30;99.90
22771;DHT22;11552;50.786;4.332;2022-08-21T07:46:36;19.50;99.90
22771;DHT22;11552;50.786;4.332;2022-08-21T07:49:01;19.70;99.90
22771;DHT22;11552;50.786;4.332;2022-08-21T07:51:27;19.80;99.90
22771;DHT22;11552;50.786;4.332;2022-08-21T07:53:54;20.10;99.90
22771;DHT22;11552;50.786;4.332;2022-08-21T07:56:20;20.50;99.90
22771;DHT22;11552;50.786;4.332;2022-08-21T07:58:46;21.10;99.90
22771;DHT22;11552;50.786;4.332;2022-08-21T08:01:11;22.30;99.90
22771;DHT22;11552;50.786;4.332;2022-08-21T08:03:37;23.60;99.90
22771;DHT22;11552;50.786;4.332;2022-08-21T08:06:04;24.60;99.90
22771;DHT22;11552;50.786;4.332;2022-08-21T08:08:30;25.60;99.90
22771;DHT22;11552;50.786;4.332;2022-08-21T08:10:56;26.10;99.90
22771;DHT22;11552;50.786;4.332;2022-08-21T08:13:22;26.50;99.90
22771;DHT22;11552;50.786;4.332;2022-08-21T08:15:48;26.60;99.90
22771;DHT22;11552;50.786;4.332;2022-08-21T08:18:15;26.50;99.90
22771;DHT22;11552;50.786;4.332;2022-08-21T08:20:41;26.10;99.90
22771;DHT22;11552;50.786;4.332;2022-08-21T08:23:07;26.40;99.90
22771;DHT22;11552;50.786;4.332;2022-08-21T08:25:32;27.00;99.90
22771;DHT22;11552;50.786;4.332;2022-08-21T08:27:58;27.70;98.80
22771;DHT22;11552;50.786;4.332;2022-08-21T08:30:26;27.90;98.10
22771;DHT22;11552;50.786;4.332;2022-08-21T08:33:16;28.70;96.60
22771;DHT22;11552;50.786;4.332;2022-08-21T08:35:42;29.90;93.60
22771;DHT22;11552;50.786;4.332;2022-08-21T08:38:09;30.80;90.90
22771;DHT22;11552;50.786;4.332;2022-08-21T08:43:13;31.80;83.90
22771;DHT22;11552;50.786;4.332;2022-08-21T08:45:39;31.00;84.80
22771;DHT22;11552;50.786;4.332;2022-08-21T08:48:08;31.50;83.50
22771;DHT22;11552;50.786;4.332;2022-08-21T08:50:39;31.40;81.90
22771;DHT22;11552;50.786;4.332;2022-08-21T08:53:07;30.90;80.70
22771;DHT22;11552;50.786;4.332;2022-08-21T08:55:41;32.00;78.00
22771;DHT22;11552;50.786;4.332;2022-08-21T08:58:07;32.60;75.20
22771;DHT22;11552;50.786;4.332;2022-08-21T09:00:34;32.10;74.40
22771;DHT22;11552;50.786;4.332;2022-08-21T09:03:00;31.10;76.30
22771;DHT22;11552;50.786;4.332;2022-08-21T09:05:29;30.60;78.40
22771;DHT22;11552;50.786;4.332;2022-08-21T09:18:58;35.20;67.10
22771;DHT22;11552;50.786;4.332;2022-08-21T09:22:00;36.50;61.10
22771;DHT22;11552;50.786;4.332;2022-08-21T09:24:31;36.30;58.70
22771;DHT22;11552;50.786;4.332;2022-08-21T09:27:18;36.00;57.60
22771;DHT22;11552;50.786;4.332;2022-08-21T09:29:44;35.50;58.30
22771;DHT22;11552;50.786;4.332;2022-08-21T09:32:13;35.80;58.50
22771;DHT22;11552;50.786;4.332;2022-08-21T09:34:40;37.30;55.60
22771;DHT22;11552;50.786;4.332;2022-08-21T09:37:14;36.40;56.10
22771;DHT22;11552;50.786;4.332;2022-08-21T09:39:40;36.60;55.10
22771;DHT22;11552;50.786;4.332;2022-08-21T09:42:07;36.30;55.00
22771;DHT22;11552;50.786;4.332;2022-08-21T09:44:34;34.80;56.60
22771;DHT22;11552;50.786;4.332;2022-08-21T09:47:04;34.80;57.00
22771;DHT22;11552;50.786;4.332;2022-08-21T09:49:31;37.30;53.60
22771;DHT22;11552;50.786;4.332;2022-08-21T09:51:56;38.60;51.60
22771;DHT22;11552;50.786;4.332;2022-08-21T09:54:26;38.90;49.10
22771;DHT22;11552;50.786;4.332;2022-08-21T09:59:40;37.80;49.00
22771;DHT22;11552;50.786;4.332;2022-08-21T10:05:03;36.40;51.10
22771;DHT22;11552;50.786;4.332;2022-08-21T10:07:30;35.70;50.90
22771;DHT22;11552;50.786;4.332;2022-08-21T10:12:27;35.70;52.20
22771;DHT22;11552;50.786;4.332;2022-08-21T10:17:41;34.60;52.80
22771;DHT22;11552;50.786;4.332;2022-08-21T10:25:14;31.90;58.60
22771;DHT22;11552;50.786;4.332;2022-08-21T10:30:12;33.00;57.00
22771;DHT22;11552;50.786;4.332;2022-08-21T10:35:24;33.90;55.80
22771;DHT22;11552;50.786;4.332;2022-08-21T10:40:38;31.30;59.70
22771;DHT22;11552;50.786;4.332;2022-08-21T10:45:56;29.20;65.70
22771;DHT22;11552;50.786;4.332;2022-08-21T10:50:52;28.10;69.80
22771;DHT22;11552;50.786;4.332;2022-08-21T10:55:58;27.90;71.60
22771;DHT22;11552;50.786;4.332;2022-08-21T10:58:25;27.40;72.60
22771;DHT22;11552;50.786;4.332;2022-08-21T11:01:00;27.30;74.30
22771;DHT22;11552;50.786;4.332;2022-08-21T11:03:32;27.30;74.80
22771;DHT22;11552;50.786;4.332;2022-08-21T11:06:09;27.60;74.40
22771;DHT22;11552;50.786;4.332;2022-08-21T11:08:38;28.00;72.60
22771;DHT22;11552;50.786;4.332;2022-08-21T11:11:05;27.70;73.20
22771;DHT22;11552;50.786;4.332;2022-08-21T11:16:17;26.70;75.60
22771;DHT22;11552;50.786;4.332;2022-08-21T11:18:53;26.20;77.70
22771;DHT22;11552;50.786;4.332;2022-08-21T11:21:37;26.00;80.10
22771;DHT22;11552;50.786;4.332;2022-08-21T11:24:29;25.90;80.80
22771;DHT22;11552;50.786;4.332;2022-08-21T11:27:00;26.40;80.40
22771;DHT22;11552;50.786;4.332;2022-08-21T11:29:27;26.60;79.60
22771;DHT22;11552;50.786;4.332;2022-08-21T11:32:01;26.60;79.80
22771;DHT22;11552;50.786;4.332;2022-08-21T11:37:01;26.50;79.80
22771;DHT22;11552;50.786;4.332;2022-08-21T11:44:47;27.00;80.30
22771;DHT22;11552;50.786;4.332;2022-08-21T11:48:01;27.20;79.50
22771;DHT22;11552;50.786;4.332;2022-08-21T11:50:11;27.20;79.80
22771;DHT22;11552;50.786;4.332;2022-08-21T11:52:39;27.10;79.40
22771;DHT22;11552;50.786;4.332;2022-08-21T11:55:14;27.10;80.00
22771;DHT22;11552;50.786;4.332;2022-08-21T12:00:17;27.50;78.40
22771;DHT22;11552;50.786;4.332;2022-08-21T12:02:51;27.80;77.00
22771;DHT22;11552;50.786;4.332;2022-08-21T12:05:31;27.90;76.60
22771;DHT22;11552;50.786;4.332;2022-08-21T12:08:06;27.70;76.80
22771;DHT22;11552;50.786;4.332;2022-08-21T12:10:36;27.30;78.00
22771;DHT22;11552;50.786;4.332;2022-08-21T12:13:10;27.20;77.40
22771;DHT22;11552;50.786;4.332;2022-08-21T12:15:37;27.00;76.80
22771;DHT22;11552;50.786;4.332;2022-08-21T12:18:04;27.00;76.40
22771;DHT22;11552;50.786;4.332;2022-08-21T12:25:35;26.90;78.40
22771;DHT22;11552;50.786;4.332;2022-08-21T12:28:08;27.20;77.50
22771;DHT22;11552;50.786;4.332;2022-08-21T12:30:36;27.00;76.70
22771;DHT22;11552;50.786;4.332;2022-08-21T12:35:45;26.80;78.60
22771;DHT22;11552;50.786;4.332;2022-08-21T12:38:15;27.00;78.70
22771;DHT22;11552;50.786;4.332;2022-08-21T12:40:52;27.00;76.60
22771;DHT22;11552;50.786;4.332;2022-08-21T12:43:20;27.30;76.70
22771;DHT22;11552;50.786;4.332;2022-08-21T12:45:48;27.10;76.20
22771;DHT22;11552;50.786;4.332;2022-08-21T12:48:16;27.00;78.20
22771;DHT22;11552;50.786;4.332;2022-08-21T12:50:54;27.20;77.40
22771;DHT22;11552;50.786;4.332;2022-08-21T12:55:53;27.20;77.10
22771;DHT22;11552;50.786;4.332;2022-08-21T12:58:25;27.40;76.30
22771;DHT22;11552;50.786;4.332;2022-08-21T13:00:52;27.20;75.70
22771;DHT22;11552;50.786;4.332;2022-08-21T13:03:18;27.20;75.30
22771;DHT22;11552;50.786;4.332;2022-08-21T13:05:44;27.20;75.70
22771;DHT22;11552;50.786;4.332;2022-08-21T13:08:10;27.50;75.00
22771;DHT22;11552;50.786;4.332;2022-08-21T13:10:36;27.40;73.50
22771;DHT22;11552;50.786;4.332;2022-08-21T13:13:04;27.20;74.70
22771;DHT22;11552;50.786;4.332;2022-08-21T13:15:34;27.10;75.40
22771;DHT22;11552;50.786;4.332;2022-08-21T13:18:01;27.10;76.60
22771;DHT22;11552;50.786;4.332;2022-08-21T13:20:29;27.00;77.20
22771;DHT22;11552;50.786;4.332;2022-08-21T13:22:54;26.80;77.30
22771;DHT22;11552;50.786;4.332;2022-08-21T13:25:21;26.60;78.80
22771;DHT22;11552;50.786;4.332;2022-08-21T13:27:57;26.40;78.70
22771;DHT22;11552;50.786;4.332;2022-08-21T13:30:23;26.30;78.80
22771;DHT22;11552;50.786;4.332;2022-08-21T13:32:56;26.20;79.10
22771;DHT22;11552;50.786;4.332;2022-08-21T13:35:27;26.10;80.50
22771;DHT22;11552;50.786;4.332;2022-08-21T13:37:53;26.20;81.20
22771;DHT22;11552;50.786;4.332;2022-08-21T13:40:20;26.20;80.40
22771;DHT22;11552;50.786;4.332;2022-08-21T13:42:48;26.20;80.40
22771;DHT22;11552;50.786;4.332;2022-08-21T13:45:16;26.10;80.50
22771;DHT22;11552;50.786;4.332;2022-08-21T13:47:42;26.20;80.50
22771;DHT22;11552;50.786;4.332;2022-08-21T13:50:08;26.20;80.50
22771;DHT22;11552;50.786;4.332;2022-08-21T13:52:44;26.40;81.00
22771;DHT22;11552;50.786;4.332;2022-08-21T13:55:13;26.40;80.40
22771;DHT22;11552;50.786;4.332;2022-08-21T13:57:41;26.30;81.00
22771;DHT22;11552;50.786;4.332;2022-08-21T14:02:39;26.50;80.90
22771;DHT22;11552;50.786;4.332;2022-08-21T14:05:05;26.60;80.30
22771;DHT22;11552;50.786;4.332;2022-08-21T14:07:33;26.60;79.80
22771;DHT22;11552;50.786;4.332;2022-08-21T14:10:01;26.50;79.90
22771;DHT22;11552;50.786;4.332;2022-08-21T14:13:01;26.50;80.90
22771;DHT22;11552;50.786;4.332;2022-08-21T14:15:22;26.60;81.00
22771;DHT22;11552;50.786;4.332;2022-08-21T14:17:50;26.20;81.90
22771;DHT22;11552;50.786;4.332;2022-08-21T14:20:30;26.10;82.80
22771;DHT22;11552;50.786;4.332;2022-08-21T14:22:56;26.00;83.20
22771;DHT22;11552;50.786;4.332;2022-08-21T14:27:51;25.90;84.30
22771;DHT22;11552;50.786;4.332;2022-08-21T14:30:22;25.80;83.40
22771;DHT22;11552;50.786;4.332;2022-08-21T14:32:52;26.00;84.10
22771;DHT22;11552;50.786;4.332;2022-08-21T14:35:18;26.30;82.90
22771;DHT22;11552;50.786;4.332;2022-08-21T14:37:46;26.30;83.00
22771;DHT22;11552;50.786;4.332;2022-08-21T14:40:12;26.50;83.00
22771;DHT22;11552;50.786;4.332;2022-08-21T14:42:39;26.80;82.30
22771;DHT22;11552;50.786;4.332;2022-08-21T14:45:07;27.00;81.30
22771;DHT22;11552;50.786;4.332;2022-08-21T14:47:36;27.10;80.80
22771;DHT22;11552;50.786;4.332;2022-08-21T14:50:02;27.20;81.30
22771;DHT22;11552;50.786;4.332;2022-08-21T14:52:28;27.20;80.40
22771;DHT22;11552;50.786;4.332;2022-08-21T14:54:53;27.20;81.40
22771;DHT22;11552;50.786;4.332;2022-08-21T14:57:19;27.40;80.60
22771;DHT22;11552;50.786;4.332;2022-08-21T14:59:45;27.10;80.50
22771;DHT22;11552;50.786;4.332;2022-08-21T15:02:10;27.00;80.60
22771;DHT22;11552;50.786;4.332;2022-08-21T15:04:36;26.90;79.90
22771;DHT22;11552;50.786;4.332;2022-08-21T15:07:02;27.00;80.80
22771;DHT22;11552;50.786;4.332;2022-08-21T15:09:28;27.00;80.80
22771;DHT22;11552;50.786;4.332;2022-08-21T15:11:56;27.00;81.30
22771;DHT22;11552;50.786;4.332;2022-08-21T15:14:24;27.00;81.50
22771;DHT22;11552;50.786;4.332;2022-08-21T15:16:50;27.00;81.10
22771;DHT22;11552;50.786;4.332;2022-08-21T15:19:16;27.00;81.20
22771;DHT22;11552;50.786;4.332;2022-08-21T15:21:41;26.90;80.80
22771;DHT22;11552;50.786;4.332;2022-08-21T15:24:07;27.00;79.60
22771;DHT22;11552;50.786;4.332;2022-08-21T15:26:33;26.60;81.60
22771;DHT22;11552;50.786;4.332;2022-08-21T15:28:59;26.70;82.50
22771;DHT22;11552;50.786;4.332;2022-08-21T15:31:24;26.80;81.90
22771;DHT22;11552;50.786;4.332;2022-08-21T15:33:50;26.80;81.40
22771;DHT22;11552;50.786;4.332;2022-08-21T15:36:16;26.90;80.70
22771;DHT22;11552;50.786;4.332;2022-08-21T15:38:44;26.90;81.00
22771;DHT22;11552;50.786;4.332;2022-08-21T15:41:10;26.80;81.50
22771;DHT22;11552;50.786;4.332;2022-08-21T15:43:45;26.90;81.50
22771;DHT22;11552;50.786;4.332;2022-08-21T15:46:12;26.80;80.40
22771;DHT22;11552;50.786;4.332;2022-08-21T15:48:38;26.60;80.50
22771;DHT22;11552;50.786;4.332;2022-08-21T15:51:04;26.40;80.30
22771;DHT22;11552;50.786;4.332;2022-08-21T15:53:29;26.50;80.60
22771;DHT22;11552;50.786;4.332;2022-08-21T15:55:57;26.30;80.90
22771;DHT22;11552;50.786;4.332;2022-08-21T15:58:22;26.50;80.50
22771;DHT22;11552;50.786;4.332;2022-08-21T16:00:48;26.30;80.70
22771;DHT22;11552;50.786;4.332;2022-08-21T16:03:14;26.10;80.30
22771;DHT22;11552;50.786;4.332;2022-08-21T16:05:42;26.20;80.80
22771;DHT22;11552;50.786;4.332;2022-08-21T16:08:08;26.20;81.30
22771;DHT22;11552;50.786;4.332;2022-08-21T16:10:35;26.30;80.80
22771;DHT22;11552;50.786;4.332;2022-08-21T16:13:01;26.20;80.80
22771;DHT22;11552;50.786;4.332;2022-08-21T16:15:28;26.10;81.70
22771;DHT22;11552;50.786;4.332;2022-08-21T16:17:54;26.00;82.20
22771;DHT22;11552;50.786;4.332;2022-08-21T16:20:21;26.10;82.30
22771;DHT22;11552;50.786;4.332;2022-08-21T16:22:47;25.90;82.40
22771;DHT22;11552;50.786;4.332;2022-08-21T16:25:13;25.90;82.10
22771;DHT22;11552;50.786;4.332;2022-08-21T16:27:39;25.80;82.10
22771;DHT22;11552;50.786;4.332;2022-08-21T16:30:05;25.80;82.60
22771;DHT22;11552;50.786;4.332;2022-08-21T16:32:30;25.70;83.60
22771;DHT22;11552;50.786;4.332;2022-08-21T16:34:56;25.70;83.40
22771;DHT22;11552;50.786;4.332;2022-08-21T16:37:22;25.80;83.50
22771;DHT22;11552;50.786;4.332;2022-08-21T16:39:47;26.00;83.00
22771;DHT22;11552;50.786;4.332;2022-08-21T16:42:14;26.00;83.50
22771;DHT22;11552;50.786;4.332;2022-08-21T16:44:42;26.10;83.10
22771;DHT22;11552;50.786;4.332;2022-08-21T16:47:08;26.10;83.70
22771;DHT22;11552;50.786;4.332;2022-08-21T16:49:34;26.00;83.20